Time;durP1;ratioP1;P1;durP2;ratioP2;P2;SDS_P1;SDS_P2;PMS_P1;PMS_P2;Temp;Humidity;BMP_temperature;BMP_pressure;BME280_temperature;BME280_humidity;BME280_pressure;Samples;Min_cycle;Max_cycle;Signal;HPM_P1;HPM_P2
2023/07/16 00:00:52;;;;;;;4.75;2.80;;;;;;;28.17;54.39;100381.97;4986599;28;99341;-70
2023/07/16 00:03:19;;;;;;;3.33;2.83;;;;;;;28.26;53.33;100396.38;4993681;28;100961;-71
2023/07/16 00:05:45;;;;;;;4.18;2.70;;;;;;;28.23;54.25;100397.56;4989192;28;96791;-69
2023/07/16 00:08:12;;;;;;;3.95;2.80;;;;;;;28.37;53.41;100393.25;4991351;28;96925;-71
2023/07/16 00:10:39;;;;;;;5.32;2.80;;;;;;;28.42;52.13;100402.56;4985553;28;98922;-69
2023/07/16 00:13:06;;;;;;;3.47;2.78;;;;;;;28.57;52.03;100401.81;5001444;28;97698;-70
2023/07/16 00:15:32;;;;;;;3.67;2.90;;;;;;;28.61;52.91;100401.31;4994803;28;96957;-69
2023/07/16 00:17:59;;;;;;;6.45;3.10;;;;;;;28.60;53.05;100394.16;4991029;28;96869;-70
2023/07/16 00:20:25;;;;;;;4.95;2.40;;;;;;;28.54;53.43;100392.16;4994073;28;99087;-69
2023/07/16 00:22:52;;;;;;;4.63;3.00;;;;;;;28.56;52.35;100384.66;4988429;28;99541;-69
2023/07/16 00:25:18;;;;;;;4.53;2.92;;;;;;;28.60;52.45;100388.75;4989446;28;96906;-70
2023/07/16 00:27:47;;;;;;;6.32;3.22;;;;;;;28.46;54.46;100403.94;4990509;28;97118;-70
2023/07/16 00:30:13;;;;;;;7.25;2.85;;;;;;;28.20;56.53;100400.66;4997033;28;99323;-68
2023/07/16 00:32:40;;;;;;;5.55;2.55;;;;;;;28.26;56.60;100409.97;4993442;28;99364;-69
2023/07/16 00:35:07;;;;;;;10.55;2.78;;;;;;;28.07;58.02;100408.50;4988344;28;97224;-70
2023/07/16 00:37:34;;;;;;;4.45;2.80;;;;;;;28.20;56.32;100397.94;4992820;28;96805;-69
2023/07/16 00:40:00;;;;;;;3.13;2.65;;;;;;;28.15;57.20;100416.66;4987700;28;99381;-70
2023/07/16 00:42:27;;;;;;;3.47;2.47;;;;;;;28.30;56.43;100422.16;4994988;28;98632;-70
2023/07/16 00:44:55;;;;;;;7.93;4.50;;;;;;;28.22;56.53;100428.50;4984981;28;96975;-70
2023/07/16 00:47:22;;;;;;;3.22;2.40;;;;;;;28.08;57.30;100440.91;4998450;28;96834;-70
2023/07/16 00:49:49;;;;;;;4.97;2.60;;;;;;;28.23;56.41;100453.78;4983803;28;99346;-70
2023/07/16 00:52:19;;;;;;;5.72;2.38;;;;;;;28.18;57.04;100469.75;4988616;28;100767;-70
2023/07/16 00:54:46;;;;;;;8.05;2.85;;;;;;;28.18;56.28;100497.78;4980375;28;96717;-70
2023/07/16 00:57:12;;;;;;;3.25;2.70;;;;;;;28.24;54.74;100509.81;4986660;28;97344;-70
2023/07/16 00:59:39;;;;;;;3.72;2.85;;;;;;;28.16;53.93;100523.44;5004409;28;100922;-70
2023/07/16 01:02:06;;;;;;;5.00;2.53;;;;;;;28.05;54.09;100519.16;4978015;28;97530;-70
2023/07/16 01:04:33;;;;;;;3.08;2.30;;;;;;;28.14;53.50;100527.16;4994953;28;97063;-70
2023/07/16 01:07:04;;;;;;;3.40;2.63;;;;;;;28.14;53.52;100550.75;4987951;28;96786;-71
2023/07/16 01:09:31;;;;;;;5.63;2.63;;;;;;;28.07;53.52;100561.44;4985004;28;99349;-71
2023/07/16 01:12:00;;;;;;;3.05;2.50;;;;;;;27.93;53.81;100588.44;4984281;28;99412;-71
2023/07/16 01:14:28;;;;;;;3.20;2.60;;;;;;;27.88;54.57;100612.53;4986253;28;97318;-70
2023/07/16 01:16:58;;;;;;;3.63;2.67;;;;;;;28.01;54.00;100642.75;4992048;28;96855;-71
2023/07/16 01:19:26;;;;;;;6.05;2.55;;;;;;;28.08;54.94;100650.06;4985987;28;99615;-71
2023/07/16 01:25:52;;;;;;;3.42;2.80;;;;;;;27.81;56.59;100685.66;4965188;28;99619;-70
2023/07/16 01:29:08;;;;;;;5.75;3.13;;;;;;;27.90;57.05;100694.66;4937082;28;96911;-70
2023/07/16 01:31:36;;;;;;;3.95;3.03;;;;;;;27.74;57.12;100703.63;4870644;28;100122;-71
2023/07/16 01:34:05;;;;;;;5.35;3.20;;;;;;;27.73;56.96;100702.78;4915476;28;97617;-71
2023/07/16 01:36:34;;;;;;;3.28;3.00;;;;;;;27.63;57.12;100717.53;4930561;28;97143;-70
2023/07/16 01:39:00;;;;;;;3.72;3.17;;;;;;;27.52;56.59;100702.38;4928491;28;96895;-70
2023/07/16 01:41:27;;;;;;;11.27;4.00;;;;;;;27.49;56.79;100708.13;4929281;28;97613;-70
2023/07/16 01:43:53;;;;;;;4.45;3.35;;;;;;;27.55;56.59;100704.78;4927612;28;98956;-71
2023/07/16 01:46:20;;;;;;;5.25;3.45;;;;;;;27.29;57.35;100702.09;4929097;28;97611;-71
2023/07/16 01:48:48;;;;;;;4.95;3.15;;;;;;;27.42;56.77;100706.22;4927829;28;96865;-71
2023/07/16 01:51:14;;;;;;;4.22;3.58;;;;;;;27.45;56.64;100711.28;4924658;28;99109;-71
2023/07/16 01:53:41;;;;;;;4.55;2.97;;;;;;;27.28;56.58;100694.13;4926355;28;99263;-71
2023/07/16 01:56:07;;;;;;;3.00;2.70;;;;;;;27.29;56.21;100696.69;4925230;28;98640;-70
2023/07/16 01:58:34;;;;;;;4.32;3.28;;;;;;;27.17;56.52;100703.41;4928876;28;97739;-71
2023/07/16 02:01:00;;;;;;;7.18;3.67;;;;;;;27.19;56.46;100711.34;4930094;28;99313;-71
2023/07/16 02:03:27;;;;;;;3.03;2.63;;;;;;;26.93;57.36;100720.38;4927159;28;98998;-71
2023/07/16 02:05:54;;;;;;;4.85;2.95;;;;;;;26.90;57.09;100718.00;4926986;28;96932;-70
2023/07/16 02:08:21;;;;;;;4.03;3.05;;;;;;;26.73;57.62;100715.28;4933818;28;97249;-72
2023/07/16 02:10:48;;;;;;;5.22;2.60;;;;;;;26.95;57.34;100698.53;4929583;28;99288;-69
2023/07/16 02:13:15;;;;;;;5.03;3.08;;;;;;;27.00;56.75;100701.59;4928218;28;99146;-70
2023/07/16 02:15:41;;;;;;;3.72;2.60;;;;;;;26.92;56.92;100688.84;4930399;28;96839;-70
2023/07/16 02:18:08;;;;;;;4.65;2.67;;;;;;;27.07;56.33;100680.13;4927623;28;97740;-70
2023/07/16 02:20:34;;;;;;;3.70;2.90;;;;;;;26.91;56.82;100680.91;4933483;28;98990;-71
2023/07/16 02:23:02;;;;;;;3.42;2.58;;;;;;;26.64;58.92;100695.44;4925663;28;99361;-70
2023/07/16 02:25:29;;;;;;;7.03;2.85;;;;;;;26.54;60.77;100700.94;4930006;28;96827;-70
2023/07/16 02:27:55;;;;;;;4.15;2.47;;;;;;;26.40;62.03;100698.78;4926330;28;98646;-70
2023/07/16 02:30:22;;;;;;;3.17;2.67;;;;;;;26.36;63.14;100700.13;4927257;28;101718;-70
2023/07/16 02:32:48;;;;;;;4.43;2.30;;;;;;;26.33;63.85;100715.84;4926599;28;101317;-70
2023/07/16 02:35:15;;;;;;;2.75;2.22;;;;;;;26.22;64.36;100713.34;4928052;28;96711;-70
2023/07/16 02:37:41;;;;;;;5.78;2.35;;;;;;;26.42;64.55;100699.50;4927985;28;96693;-70
2023/07/16 02:40:09;;;;;;;4.38;2.47;;;;;;;26.54;63.86;100683.84;4932313;28;99488;-70
2023/07/16 02:42:36;;;;;;;3.33;2.70;;;;;;;26.42;63.83;100675.13;4928748;28;98834;-70
2023/07/16 02:45:02;;;;;;;5.75;2.92;;;;;;;26.53;64.77;100677.56;4927842;28;96770;-70
2023/07/16 02:47:28;;;;;;;3.85;2.20;;;;;;;26.68;64.05;100690.53;4926671;28;97333;-70
2023/07/16 02:49:55;;;;;;;6.05;2.42;;;;;;;26.52;65.15;100705.66;4929050;28;99395;-70
2023/07/16 02:52:21;;;;;;;3.53;2.90;;;;;;;26.46;65.86;100703.59;4931778;28;100980;-70
2023/07/16 02:54:48;;;;;;;4.00;2.60;;;;;;;26.56;65.47;100717.06;4933067;28;96951;-70
2023/07/16 02:57:15;;;;;;;3.42;2.40;;;;;;;26.53;65.39;100720.91;4933893;28;96905;-70
2023/07/16 02:59:42;;;;;;;5.32;2.65;;;;;;;26.66;65.90;100706.94;4932103;28;98987;-70
2023/07/16 03:02:08;;;;;;;5.18;2.80;;;;;;;26.52;65.96;100711.06;4932377;28;99155;-70
2023/07/16 03:04:34;;;;;;;3.40;2.78;;;;;;;26.59;65.62;100723.00;4931589;28;97063;-70
2023/07/16 03:07:01;;;;;;;4.72;2.70;;;;;;;26.68;65.20;100710.34;4928169;28;96862;-70
2023/07/16 03:09:27;;;;;;;4.30;3.00;;;;;;;26.72;65.45;100703.59;4928639;28;99224;-70
2023/07/16 03:11:54;;;;;;;4.38;2.80;;;;;;;26.85;65.02;100695.03;4926145;28;98930;-70
2023/07/16 03:14:21;;;;;;;5.10;3.00;;;;;;;26.88;64.43;100686.59;4928785;28;98776;-70
2023/07/16 03:16:48;;;;;;;3.17;2.83;;;;;;;26.70;65.05;100694.81;4924924;28;97395;-70
2023/07/16 03:19:14;;;;;;;4.82;2.85;;;;;;;26.62;66.33;100681.19;4926483;28;98936;-69
2023/07/16 03:21:40;;;;;;;2.92;2.55;;;;;;;26.53;67.53;100682.13;4926609;28;97497;-70
2023/07/16 03:24:07;;;;;;;7.55;2.80;;;;;;;26.48;67.24;100679.91;4931537;28;97173;-69
2023/07/16 03:26:33;;;;;;;4.22;3.28;;;;;;;26.53;67.15;100666.72;4933886;28;97179;-70
2023/07/16 03:28:59;;;;;;;4.43;3.33;;;;;;;26.43;68.22;100663.28;4936278;28;99063;-70
2023/07/16 03:31:27;;;;;;;5.55;3.08;;;;;;;26.35;68.54;100652.38;4923577;28;100092;-70
2023/07/16 03:33:53;;;;;;;4.03;3.13;;;;;;;26.28;69.43;100683.81;4928866;28;97312;-70
2023/07/16 03:36:20;;;;;;;4.22;3.05;;;;;;;26.00;70.96;100693.00;4931347;28;96811;-70
2023/07/16 03:38:46;;;;;;;3.45;2.72;;;;;;;26.30;69.24;100700.75;4935863;28;98875;-70
2023/07/16 03:41:13;;;;;;;3.45;2.78;;;;;;;26.23;69.56;100690.66;4933325;28;98953;-69
2023/07/16 03:43:39;;;;;;;6.43;3.00;;;;;;;26.51;67.37;100657.06;4930982;28;96801;-70
2023/07/16 03:46:07;;;;;;;4.30;2.50;;;;;;;26.29;67.25;100669.25;4931310;28;97069;-70
2023/07/16 03:48:35;;;;;;;4.75;2.50;;;;;;;26.35;67.34;100695.72;4932681;28;99065;-69
2023/07/16 03:51:01;;;;;;;3.83;2.38;;;;;;;26.40;67.37;100703.38;4926075;28;99309;-70
2023/07/16 03:53:28;;;;;;;3.47;2.35;;;;;;;26.57;66.47;100694.38;4929431;28;96899;-70
2023/07/16 03:55:54;;;;;;;2.75;2.20;;;;;;;26.44;66.60;100699.34;4928583;28;97245;-70
2023/07/16 03:58:20;;;;;;;2.67;2.22;;;;;;;26.41;66.47;100699.66;4928394;28;98898;-69
2023/07/16 04:00:47;;;;;;;4.03;2.20;;;;;;;26.22;66.92;100695.22;4930937;28;100430;-70
2023/07/16 04:03:13;;;;;;;3.58;2.50;;;;;;;26.23;66.83;100707.78;4927570;28;96797;-69
2023/07/16 04:05:41;;;;;;;4.55;2.13;;;;;;;26.38;66.28;100714.38;4929053;28;97126;-70
2023/07/16 04:08:08;;;;;;;3.85;2.22;;;;;;;26.46;66.07;100711.72;4926491;28;99727;-70
2023/07/16 04:10:34;;;;;;;3.65;1.90;;;;;;;26.37;65.64;100709.13;4924216;28;98930;-70
2023/07/16 04:13:01;;;;;;;3.78;1.92;;;;;;;26.26;65.78;100698.50;4929231;28;96719;-70
2023/07/16 04:15:27;;;;;;;3.00;2.08;;;;;;;26.17;66.14;100692.16;4928626;28;97536;-70
2023/07/16 04:17:53;;;;;;;4.30;2.00;;;;;;;26.22;65.99;100678.13;4930987;28;99306;-70
2023/07/16 04:20:20;;;;;;;2.33;2.05;;;;;;;26.35;65.34;100678.63;4930679;28;98853;-70
2023/07/16 04:22:48;;;;;;;4.07;2.20;;;;;;;26.39;65.15;100696.25;4929979;28;97634;-71
2023/07/16 04:25:15;;;;;;;2.25;1.80;;;;;;;26.46;65.03;100703.59;4929161;28;97021;-70
2023/07/16 04:27:43;;;;;;;2.30;2.10;;;;;;;26.47;65.23;100710.72;4925815;28;99081;-70
2023/07/16 04:30:10;;;;;;;4.68;2.10;;;;;;;26.30;65.70;100721.56;4929911;28;98930;-71
2023/07/16 04:32:37;;;;;;;2.53;2.13;;;;;;;26.25;65.91;100723.91;4928010;28;96760;-70
2023/07/16 04:35:03;;;;;;;2.28;1.92;;;;;;;26.36;65.88;100719.09;4933554;28;97980;-71
2023/07/16 04:37:30;;;;;;;2.50;1.90;;;;;;;26.26;65.85;100722.88;4931362;28;98948;-71
2023/07/16 04:39:57;;;;;;;3.67;2.28;;;;;;;26.32;65.47;100728.53;4928930;28;98848;-71
2023/07/16 04:42:24;;;;;;;3.17;1.98;;;;;;;26.31;65.26;100720.56;4929064;28;96858;-72
2023/07/16 04:44:50;;;;;;;5.55;2.78;;;;;;;26.15;66.00;100715.81;4927245;28;96832;-71
2023/07/16 04:47:16;;;;;;;2.35;1.90;;;;;;;26.26;65.00;100717.47;4928656;28;98998;-71
2023/07/16 04:49:43;;;;;;;5.93;2.30;;;;;;;26.45;64.43;100726.25;4928435;28;99211;-71
2023/07/16 04:52:09;;;;;;;5.65;2.28;;;;;;;26.20;65.38;100735.16;4925268;28;96861;-69
2023/07/16 04:54:37;;;;;;;2.42;2.20;;;;;;;26.17;65.20;100751.72;4925308;28;96899;-70
2023/07/16 04:57:07;;;;;;;3.00;2.20;;;;;;;26.11;65.72;100763.19;4924457;28;99224;-69
2023/07/16 04:59:33;;;;;;;2.78;2.20;;;;;;;26.12;65.21;100759.47;4930099;28;97725;-71
2023/07/16 05:02:00;;;;;;;3.17;2.25;;;;;;;26.29;65.12;100757.78;4931147;28;97027;-71
2023/07/16 05:04:26;;;;;;;2.90;2.22;;;;;;;26.38;64.53;100768.56;4934453;28;96983;-69
2023/07/16 05:06:52;;;;;;;2.60;2.40;;;;;;;26.23;65.15;100793.59;4928278;28;99563;-71
2023/07/16 05:09:20;;;;;;;5.72;2.45;;;;;;;26.08;65.67;100802.25;4929716;28;98871;-70
2023/07/16 05:11:46;;;;;;;2.60;2.40;;;;;;;26.34;65.29;100794.25;4921117;28;97277;-70
2023/07/16 05:14:14;;;;;;;3.38;2.53;;;;;;;26.16;65.35;100798.78;4926836;28;96770;-68
2023/07/16 05:16:40;;;;;;;3.42;2.63;;;;;;;26.17;64.93;100801.34;4927262;28;100747;-70
2023/07/16 05:19:07;;;;;;;3.72;2.72;;;;;;;26.10;65.60;100805.66;4925972;28;99060;-70
2023/07/16 05:21:33;;;;;;;2.50;2.30;;;;;;;26.29;65.01;100798.41;4925246;28;97428;-70
2023/07/16 05:23:59;;;;;;;2.90;2.33;;;;;;;26.39;64.53;100781.06;4928150;28;96974;-70
2023/07/16 05:26:26;;;;;;;3.90;2.78;;;;;;;26.66;64.31;100785.53;4931769;28;98797;-70
2023/07/16 05:28:52;;;;;;;4.72;2.55;;;;;;;26.99;62.46;100792.09;4928492;28;98865;-69
2023/07/16 05:31:20;;;;;;;2.55;2.35;;;;;;;27.17;61.37;100783.94;4930082;28;96746;-70
2023/07/16 05:33:46;;;;;;;4.00;2.55;;;;;;;27.36;60.50;100789.97;4928315;28;97039;-70
2023/07/16 05:36:12;;;;;;;9.27;2.90;;;;;;;27.24;60.99;100796.66;4927289;28;99182;-70
2023/07/16 05:38:39;;;;;;;5.45;2.63;;;;;;;27.12;61.01;100795.22;4931242;28;99381;-70
2023/07/16 05:41:06;;;;;;;3.08;2.65;;;;;;;26.72;62.69;100794.91;4928326;28;96907;-70
2023/07/16 05:43:32;;;;;;;2.90;2.53;;;;;;;26.65;62.66;100801.97;4933055;28;96780;-70
2023/07/16 05:45:59;;;;;;;4.65;2.58;;;;;;;26.58;63.04;100802.59;4930876;28;100031;-70
2023/07/16 05:48:26;;;;;;;9.13;3.00;;;;;;;26.50;63.39;100807.94;4928609;28;100418;-70
2023/07/16 05:50:52;;;;;;;3.22;2.63;;;;;;;26.81;62.82;100810.22;4931653;28;96959;-70
2023/07/16 05:53:18;;;;;;;5.35;2.65;;;;;;;26.66;62.90;100804.50;4930439;28;96885;-70
2023/07/16 05:55:45;;;;;;;4.18;3.03;;;;;;;26.68;63.26;100804.38;4922622;28;98311;-70
2023/07/16 05:58:11;;;;;;;7.13;3.13;;;;;;;26.66;63.44;100809.09;4928876;28;98964;-70
2023/07/16 06:00:38;;;;;;;4.40;2.58;;;;;;;27.03;62.45;100809.78;4927569;28;97084;-69
2023/07/16 06:03:04;;;;;;;3.20;2.63;;;;;;;27.25;61.47;100803.78;4930482;28;97727;-71
2023/07/16 06:05:34;;;;;;;6.43;2.90;;;;;;;27.37;61.24;100802.50;4926649;28;99301;-71
2023/07/16 06:08:01;;;;;;;4.45;2.78;;;;;;;26.99;61.92;100808.38;4928973;28;99243;-71
2023/07/16 06:10:27;;;;;;;4.78;3.05;;;;;;;26.97;62.19;100813.13;4930973;28;96863;-70
2023/07/16 06:12:54;;;;;;;4.43;2.80;;;;;;;27.23;61.28;100811.25;4927490;28;96841;-70
2023/07/16 06:15:21;;;;;;;6.70;2.70;;;;;;;27.42;60.92;100820.19;4926070;28;98811;-71
2023/07/16 06:17:47;;;;;;;3.50;2.50;;;;;;;27.65;59.62;100810.47;4923969;28;99369;-70
2023/07/16 06:20:14;;;;;;;3.38;2.63;;;;;;;27.69;59.76;100818.16;4927947;28;99344;-71
2023/07/16 06:22:41;;;;;;;3.75;2.67;;;;;;;27.92;59.07;100817.53;4930187;28;97477;-70
2023/07/16 06:25:10;;;;;;;3.75;2.60;;;;;;;28.12;58.56;100819.81;4927214;28;99667;-71
2023/07/16 06:27:37;;;;;;;3.03;2.50;;;;;;;28.37;58.09;100825.31;4926157;28;102299;-71
2023/07/16 06:30:05;;;;;;;4.15;2.65;;;;;;;28.19;57.64;100811.88;4926957;28;97969;-70
2023/07/16 06:32:32;;;;;;;6.55;2.60;;;;;;;28.26;58.00;100815.63;4922336;28;96802;-71
2023/07/16 06:34:58;;;;;;;3.85;2.70;;;;;;;28.07;57.67;100815.91;4925694;28;98164;-70
2023/07/16 06:37:25;;;;;;;2.70;2.50;;;;;;;28.20;57.69;100820.88;4919439;28;102037;-70
2023/07/16 06:39:53;;;;;;;3.70;3.05;;;;;;;28.27;57.17;100827.34;4926393;28;97098;-70
2023/07/16 06:42:19;;;;;;;3.90;2.67;;;;;;;28.43;56.89;100835.53;4923744;28;96902;-70
2023/07/16 06:44:46;;;;;;;2.83;2.63;;;;;;;28.61;55.88;100825.38;4928166;28;99620;-71
2023/07/16 06:47:12;;;;;;;3.08;2.30;;;;;;;29.06;54.55;100826.75;4927100;28;99406;-70
2023/07/16 06:49:38;;;;;;;2.50;2.30;;;;;;;29.01;54.14;100831.88;4926705;28;96967;-71
2023/07/16 06:52:06;;;;;;;5.10;2.40;;;;;;;29.34;52.77;100840.84;4923838;28;96954;-70
2023/07/16 06:54:32;;;;;;;3.13;2.38;;;;;;;29.37;52.55;100841.34;4923805;28;100344;-70
2023/07/16 06:57:00;;;;;;;2.95;2.25;;;;;;;29.53;52.04;100833.16;4922984;28;98406;-70
2023/07/16 06:59:26;;;;;;;3.03;2.42;;;;;;;29.88;50.71;100844.56;4925421;28;96750;-71
2023/07/16 07:01:52;;;;;;;6.10;2.13;;;;;;;29.39;51.85;100852.91;4925214;28;96856;-70
2023/07/16 07:04:19;;;;;;;5.85;2.50;;;;;;;29.41;51.23;100850.84;4927721;28;100340;-70
2023/07/16 07:06:45;;;;;;;5.40;2.15;;;;;;;29.36;51.45;100855.97;4928194;28;97570;-64
2023/07/16 07:09:11;;;;;;;4.25;2.70;;;;;;;29.61;51.24;100860.31;4926999;28;96759;-64
2023/07/16 07:11:38;;;;;;;3.65;2.20;;;;;;;29.88;50.35;100863.63;4929726;28;97324;-64
2023/07/16 07:14:05;;;;;;;4.32;2.40;;;;;;;30.13;50.14;100853.53;4923497;28;98985;-64
2023/07/16 07:16:32;;;;;;;3.40;2.47;;;;;;;29.82;49.74;100857.03;4926128;28;98895;-64
2023/07/16 07:18:58;;;;;;;3.05;2.00;;;;;;;29.09;51.48;100853.59;4925800;28;97767;-64
2023/07/16 07:21:25;;;;;;;3.10;2.20;;;;;;;28.97;52.50;100860.41;4927724;28;98594;-64
2023/07/16 07:23:51;;;;;;;2.20;2.00;;;;;;;29.14;51.96;100864.84;4928785;28;102120;-64
2023/07/16 07:26:17;;;;;;;4.30;2.53;;;;;;;29.58;50.80;100868.00;4926980;28;99308;-64
2023/07/16 07:28:44;;;;;;;3.10;2.08;;;;;;;29.21;51.42;100882.19;4930216;28;96892;-64
2023/07/16 07:31:12;;;;;;;4.53;2.00;;;;;;;29.45;50.91;100867.69;4931594;28;97715;-64
2023/07/16 07:33:38;;;;;;;4.88;2.03;;;;;;;29.65;50.50;100874.47;4919869;28;98897;-63
2023/07/16 07:36:05;;;;;;;4.10;2.40;;;;;;;30.22;49.02;100886.00;4925589;28;99020;-64
2023/07/16 07:38:32;;;;;;;2.45;2.20;;;;;;;30.16;48.32;100885.84;4923666;28;97265;-65
2023/07/16 07:40:58;;;;;;;4.28;2.00;;;;;;;29.96;48.34;100878.13;4928706;28;97098;-64
2023/07/16 07:43:24;;;;;;;2.35;2.10;;;;;;;29.52;48.41;100885.91;4921270;28;97776;-64
2023/07/16 07:45:51;;;;;;;2.85;2.17;;;;;;;29.09;49.79;100894.41;4931665;28;98900;-64
2023/07/16 07:48:18;;;;;;;3.63;2.33;;;;;;;28.70;50.93;100888.75;4931184;28;96729;-64
2023/07/16 07:50:47;;;;;;;3.88;2.58;;;;;;;29.16;49.83;100892.69;4927687;28;96829;-65
2023/07/16 07:53:14;;;;;;;6.28;1.95;;;;;;;29.33;48.69;100894.41;4930587;28;101421;-63
2023/07/16 07:55:41;;;;;;;3.88;2.25;;;;;;;29.50;48.15;100893.38;4930738;28;98927;-64
2023/07/16 07:58:08;;;;;;;3.95;2.00;;;;;;;29.95;47.03;100894.63;4930169;28;96758;-64
2023/07/16 08:00:35;;;;;;;3.25;1.88;;;;;;;30.28;44.99;100898.91;4930245;28;96819;-63
2023/07/16 08:03:01;;;;;;;2.28;1.50;;;;;;;30.08;44.99;100911.25;4929205;28;99524;-65
2023/07/16 08:05:29;;;;;;;4.40;2.00;;;;;;;30.18;44.30;100897.44;4926577;28;99521;-64
2023/07/16 08:07:56;;;;;;;11.73;2.15;;;;;;;30.27;44.03;100910.84;4931500;28;96805;-64
2023/07/16 08:10:22;;;;;;;2.35;1.40;;;;;;;29.98;44.56;100902.47;4927791;28;96915;-64
2023/07/16 08:12:49;;;;;;;1.98;1.60;;;;;;;29.63;45.33;100904.56;4925758;28;99704;-63
2023/07/16 08:15:16;;;;;;;2.25;1.60;;;;;;;29.10;46.35;100905.13;4925231;28;99648;-63
2023/07/16 08:17:42;;;;;;;1.58;1.48;;;;;;;29.03;46.19;100906.81;4929884;28;96942;-63
2023/07/16 08:20:10;;;;;;;4.50;1.58;;;;;;;29.20;45.29;100918.56;4924558;28;97091;-64
2023/07/16 08:22:38;;;;;;;3.75;1.60;;;;;;;29.12;44.12;100919.41;4929438;28;99155;-64
2023/07/16 08:25:05;;;;;;;2.40;1.60;;;;;;;29.38;43.13;100921.97;4930624;28;98853;-63
2023/07/16 08:27:31;;;;;;;3.30;1.60;;;;;;;29.54;42.46;100918.38;4931060;28;96768;-63
2023/07/16 08:29:58;;;;;;;4.47;1.77;;;;;;;29.40;42.50;100911.78;4928341;28;97593;-63
2023/07/16 08:32:25;;;;;;;5.22;2.17;;;;;;;29.73;41.77;100918.00;4930119;28;99607;-63
2023/07/16 08:34:51;;;;;;;3.65;1.40;;;;;;;29.85;40.92;100921.22;4926907;28;99994;-64
2023/07/16 08:37:17;;;;;;;2.63;1.50;;;;;;;29.99;39.97;100920.50;4931251;28;96902;-63
2023/07/16 08:39:45;;;;;;;3.45;1.83;;;;;;;30.30;39.91;100928.72;4924729;28;96752;-63
2023/07/16 08:42:12;;;;;;;1.83;1.50;;;;;;;30.09;38.72;100934.78;4923825;28;99553;-63
2023/07/16 08:44:39;;;;;;;3.83;1.45;;;;;;;29.93;39.14;100935.66;4926563;28;99402;-63
2023/07/16 08:47:06;;;;;;;1.75;1.45;;;;;;;30.16;39.01;100938.50;4924763;28;96737;-65
2023/07/16 08:49:35;;;;;;;3.67;1.77;;;;;;;30.42;37.87;100939.06;4921300;28;96826;-63
2023/07/16 08:52:02;;;;;;;4.65;1.73;;;;;;;30.05;38.99;100936.16;4928511;28;99163;-64
2023/07/16 08:54:29;;;;;;;3.90;1.70;;;;;;;30.18;38.55;100933.72;4924094;28;99084;-64
2023/07/16 08:56:58;;;;;;;6.80;1.88;;;;;;;30.23;38.31;100939.47;4926141;28;97148;-64
2023/07/16 08:59:27;;;;;;;3.17;1.75;;;;;;;29.72;39.08;100929.94;4930513;28;96837;-64
2023/07/16 09:01:53;;;;;;;3.00;1.50;;;;;;;29.93;39.14;100943.00;4930198;28;99036;-64
2023/07/16 09:04:20;;;;;;;5.28;1.60;;;;;;;30.13;37.64;100941.56;4929282;28;98915;-64
2023/07/16 09:06:46;;;;;;;3.22;1.40;;;;;;;30.63;36.17;100935.72;4927638;28;96830;-64
2023/07/16 09:09:21;;;;;;;5.45;1.58;;;;;;;29.70;37.46;100948.31;4927724;28;97202;-63
2023/07/16 09:11:48;;;;;;;4.07;1.63;;;;;;;29.60;38.12;100947.66;4925935;28;99363;-64
2023/07/16 09:14:17;;;;;;;4.93;1.90;;;;;;;29.58;38.68;100956.00;4924704;28;101500;-64
2023/07/16 09:16:44;;;;;;;3.28;1.55;;;;;;;30.04;38.04;100953.53;4923512;28;96832;-64
2023/07/16 09:19:13;;;;;;;4.88;1.60;;;;;;;30.21;38.00;100952.44;4927727;28;96815;-64
2023/07/16 09:21:39;;;;;;;3.22;1.73;;;;;;;29.99;38.06;100958.66;4925783;28;98914;-64
2023/07/16 09:24:08;;;;;;;2.60;1.30;;;;;;;30.05;38.66;100969.72;4930313;28;98930;-64
2023/07/16 09:26:37;;;;;;;5.18;1.50;;;;;;;29.89;37.48;100957.97;4926866;28;97277;-65
2023/07/16 09:29:06;;;;;;;9.40;1.75;;;;;;;30.09;36.80;100960.16;4930712;28;97146;-64
2023/07/16 09:31:34;;;;;;;3.03;1.83;;;;;;;30.42;36.74;100955.41;4922358;28;99689;-63
2023/07/16 09:34:01;;;;;;;5.07;1.58;;;;;;;30.98;35.54;100947.94;4929618;28;99031;-63
2023/07/16 09:36:27;;;;;;;6.82;1.73;;;;;;;31.05;35.19;100943.47;4923500;28;97292;-63
2023/07/16 09:38:55;;;;;;;2.08;1.70;;;;;;;31.32;34.64;100952.13;4928923;28;97025;-63
2023/07/16 09:41:21;;;;;;;5.03;1.60;;;;;;;31.38;34.16;100957.69;4917948;28;97725;-63
2023/07/16 09:43:48;;;;;;;2.35;1.50;;;;;;;31.72;33.68;100954.50;4929994;28;98900;-64
2023/07/16 09:46:15;;;;;;;4.15;1.80;;;;;;;31.40;33.10;100944.72;4930343;28;96778;-63
2023/07/16 09:48:43;;;;;;;3.03;1.60;;;;;;;30.80;34.17;100952.81;4929393;28;96905;-65
2023/07/16 09:51:13;;;;;;;4.85;1.58;;;;;;;30.40;35.23;100953.88;4927845;28;99473;-64
2023/07/16 09:53:43;;;;;;;1.98;1.63;;;;;;;30.52;34.79;100957.97;4928067;28;99711;-63
2023/07/16 09:56:13;;;;;;;2.78;1.67;;;;;;;30.86;33.95;100958.41;4927720;28;98174;-65
2023/07/16 09:58:40;;;;;;;4.07;1.60;;;;;;;30.83;33.61;100952.47;4928961;28;97051;-64
2023/07/16 10:01:07;;;;;;;3.50;1.52;;;;;;;31.11;33.07;100971.94;4926587;28;98968;-63
2023/07/16 10:03:34;;;;;;;4.25;1.30;;;;;;;30.50;35.01;100965.47;4923778;28;99259;-65
2023/07/16 10:06:08;;;;;;;3.65;1.63;;;;;;;30.41;34.08;100964.59;4925141;28;97545;-64
2023/07/16 10:08:35;;;;;;;3.53;1.35;;;;;;;30.31;34.26;100965.84;4928831;28;96893;-65
2023/07/16 10:11:02;;;;;;;3.47;1.52;;;;;;;30.17;34.71;100970.16;4929632;28;99228;-64
2023/07/16 10:13:28;;;;;;;1.50;1.40;;;;;;;30.31;34.54;100958.53;4923621;28;98946;-64
2023/07/16 10:15:57;;;;;;;3.70;1.55;;;;;;;30.34;35.01;100968.22;4928411;28;96877;-64
2023/07/16 10:18:27;;;;;;;3.63;1.80;;;;;;;31.02;34.26;100957.47;4924764;28;97111;-64
2023/07/16 10:20:53;;;;;;;2.88;1.60;;;;;;;31.70;33.19;100956.59;4927330;28;99691;-64
2023/07/16 10:23:21;;;;;;;3.60;1.65;;;;;;;31.98;32.39;100963.09;4924629;28;98158;-64
2023/07/16 10:25:59;;;;;;;6.85;1.60;;;;;;;31.94;32.92;100948.13;4929238;28;96805;-65
2023/07/16 10:28:26;;;;;;;4.30;1.70;;;;;;;31.69;33.23;100949.41;4927733;28;96777;-64
2023/07/16 10:30:52;;;;;;;3.58;1.70;;;;;;;31.53;33.14;100955.84;4927576;28;98992;-64
2023/07/16 10:33:19;;;;;;;2.33;1.42;;;;;;;31.27;33.73;100949.94;4926203;28;101319;-64
2023/07/16 10:35:46;;;;;;;4.93;1.50;;;;;;;31.38;33.29;100965.03;4929260;28;97284;-65
2023/07/16 10:38:13;;;;;;;5.65;2.03;;;;;;;31.21;33.35;100957.00;4928684;28;96778;-64
2023/07/16 10:40:42;;;;;;;2.55;1.67;;;;;;;31.05;34.11;100967.22;4923827;28;101656;-64
2023/07/16 10:43:09;;;;;;;4.88;1.90;;;;;;;31.17;34.20;100966.59;4925966;28;98848;-64
2023/07/16 10:45:35;;;;;;;2.70;1.80;;;;;;;31.15;34.48;100962.34;4926934;28;97208;-65
2023/07/16 10:48:02;;;;;;;4.22;1.90;;;;;;;31.25;34.11;100969.22;4928577;28;97812;-64
2023/07/16 10:50:28;;;;;;;2.30;1.50;;;;;;;30.41;33.90;100978.25;4923773;28;98921;-65
2023/07/16 10:52:56;;;;;;;4.18;1.80;;;;;;;30.46;35.00;100973.09;4923742;28;99075;-64
2023/07/16 10:55:24;;;;;;;6.10;1.88;;;;;;;30.73;34.66;100973.66;4922947;28;97207;-64
2023/07/16 10:57:52;;;;;;;2.35;1.77;;;;;;;30.83;34.41;100963.38;4928284;28;96829;-63
2023/07/16 11:00:19;;;;;;;5.75;1.88;;;;;;;31.17;34.04;100972.06;4925665;28;99012;-64
2023/07/16 11:02:46;;;;;;;3.40;1.70;;;;;;;31.41;33.44;100964.69;4920888;28;99287;-64
2023/07/16 11:05:13;;;;;;;4.05;1.85;;;;;;;31.86;33.13;100971.94;4924167;28;96951;-64
2023/07/16 11:07:43;;;;;;;4.13;1.63;;;;;;;31.88;32.42;100980.81;4929365;28;96797;-64
2023/07/16 11:10:10;;;;;;;3.25;1.60;;;;;;;32.03;32.55;100974.28;4925664;28;99242;-64
2023/07/16 11:12:36;;;;;;;2.42;1.90;;;;;;;32.47;31.66;100965.25;4930075;28;97921;-64
2023/07/16 11:15:05;;;;;;;2.70;1.67;;;;;;;32.41;31.26;100972.34;4932382;28;97729;-64
2023/07/16 11:17:32;;;;;;;4.18;1.85;;;;;;;32.01;31.99;100964.59;4927291;28;96771;-64
2023/07/16 11:20:00;;;;;;;6.78;2.15;;;;;;;32.19;31.72;100969.72;4929155;28;100325;-64
2023/07/16 11:22:27;;;;;;;2.20;1.63;;;;;;;31.96;31.56;100967.06;4930970;28;98829;-64
2023/07/16 11:24:55;;;;;;;3.38;1.90;;;;;;;31.91;32.45;100967.59;4929570;28;96955;-64
2023/07/16 11:27:23;;;;;;;3.22;1.90;;;;;;;31.81;32.59;100969.78;4931678;28;96919;-63